createdAt,value
2019-03-29T00:01:55.355Z,5.18
2019-03-29T00:06:58.435Z,4.64
2019-03-29T00:12:01.282Z,3.78
2019-03-29T00:17:04.230Z,4.48
2019-03-29T00:22:07.208Z,4.21
2019-03-29T00:27:10.286Z,4.82
2019-03-29T00:32:13.256Z,3.57
2019-03-29T00:37:16.078Z,3.75
2019-03-29T00:42:18.883Z,2.84
2019-03-29T00:47:21.851Z,4.77
2019-03-29T00:52:24.781Z,4.54
2019-03-29T00:57:27.693Z,5.32
2019-03-29T01:02:30.558Z,3.70
2019-03-29T01:07:33.725Z,6.09
2019-03-29T01:12:36.528Z,5.45
2019-03-29T01:17:39.712Z,4.42
2019-03-29T01:22:42.621Z,5.01
2019-03-29T01:27:46.092Z,5.75
2019-03-29T01:32:47.876Z,3.98
2019-03-29T01:37:50.924Z,5.10
2019-03-29T01:42:53.565Z,6.13
2019-03-29T01:47:56.696Z,4.19
2019-03-29T01:52:59.588Z,4.53
2019-03-29T01:58:02.430Z,3.60
2019-03-29T02:03:05.260Z,4.96
2019-03-29T02:08:08.206Z,4.82
2019-03-29T02:13:11.428Z,6.19
2019-03-29T02:18:14.309Z,5.73
2019-03-29T02:23:18.037Z,6.70
2019-03-29T02:28:20.951Z,4.54
2019-03-29T02:33:23.777Z,9.16
2019-03-29T02:38:26.621Z,5.86
2019-03-29T02:43:29.542Z,6.86
2019-03-29T02:48:32.485Z,8.26
2019-03-29T02:53:35.401Z,7.03
2019-03-29T02:58:38.212Z,6.61
2019-03-29T03:03:41.194Z,6.26
2019-03-29T03:08:44.176Z,6.35
2019-03-29T03:13:47.160Z,6.96
2019-03-29T03:18:50.219Z,4.45
2019-03-29T03:23:53.190Z,6.18
2019-03-29T03:28:56.242Z,6.88
2019-03-29T03:33:59.176Z,7.82
2019-03-29T03:39:02.120Z,5.92
2019-03-29T03:44:05.006Z,7.24
2019-03-29T03:49:07.721Z,10.89
2019-03-29T03:54:10.685Z,7.81
2019-03-29T03:59:13.724Z,7.83
2019-03-29T04:04:17.234Z,7.90
2019-03-29T04:09:20.179Z,5.98
2019-03-29T04:14:23.211Z,5.05
2019-03-29T04:19:26.158Z,4.44
2019-03-29T04:24:28.831Z,3.64
2019-03-29T04:29:31.519Z,4.60
2019-03-29T04:34:34.450Z,3.73
2019-03-29T04:39:37.109Z,4.66
2019-03-29T04:44:40.116Z,6.63
2019-03-29T04:49:43.115Z,8.79
2019-03-29T04:54:46.337Z,7.35
2019-03-29T04:59:48.919Z,8.70
2019-03-29T05:04:51.579Z,9.33
2019-03-29T05:09:54.369Z,10.00
2019-03-29T05:14:57.511Z,13.14
2019-03-29T05:20:00.389Z,12.38
2019-03-29T05:25:03.070Z,13.51
2019-03-29T05:30:05.859Z,13.15
2019-03-29T05:35:09.170Z,15.43
2019-03-29T05:40:12.070Z,15.69
2019-03-29T05:45:15.177Z,13.50
2019-03-29T05:50:17.979Z,18.57
2019-03-29T05:55:32.007Z,19.59
2019-03-29T06:00:23.144Z,18.44
2019-03-29T06:05:26.269Z,21.36
2019-03-29T06:10:29.239Z,14.37
2019-03-29T06:15:33.206Z,22.70
2019-03-29T06:20:36.319Z,18.81
2019-03-29T06:25:39.054Z,16.16
2019-03-29T06:30:42.063Z,16.65
2019-03-29T06:35:45.086Z,15.20
2019-03-29T06:41:01.832Z,15.54
2019-03-29T06:45:50.855Z,16.67
2019-03-29T06:50:53.971Z,14.25
2019-03-29T06:55:59.332Z,15.93
2019-03-29T07:00:59.138Z,17.61
2019-03-29T07:06:01.801Z,16.58
2019-03-29T07:11:16.502Z,14.19
2019-03-29T07:16:07.938Z,15.63
2019-03-29T07:21:20.863Z,14.22
2019-03-29T07:26:13.252Z,17.35
2019-03-29T07:31:16.018Z,16.37
2019-03-29T07:36:19.080Z,15.17
2019-03-29T07:41:31.770Z,12.06
2019-03-29T07:46:24.365Z,10.95
2019-03-29T07:51:27.216Z,11.74
2019-03-29T07:56:30.167Z,11.50
2019-03-29T08:01:32.993Z,9.13
2019-03-29T08:06:36.050Z,13.45
2019-03-29T08:11:46.202Z,12.23
2019-03-29T08:16:41.257Z,9.84
2019-03-29T08:21:44.164Z,9.60
2019-03-29T08:26:47.083Z,12.97
2019-03-29T08:31:49.989Z,11.41
2019-03-29T08:36:52.976Z,7.68
2019-03-29T08:42:00.346Z,8.92
2019-03-29T08:46:58.528Z,7.20
2019-03-29T08:52:01.490Z,8.80
2019-03-29T08:57:04.405Z,10.34
2019-03-29T09:02:07.316Z,8.47
2019-03-29T09:07:10.294Z,12.03
2019-03-29T09:12:14.355Z,15.65
2019-03-29T09:17:15.922Z,12.98
2019-03-29T09:22:18.797Z,14.19
2019-03-29T09:27:21.842Z,9.46
2019-03-29T09:32:24.745Z,10.62
2019-03-29T09:37:27.829Z,12.37
2019-03-29T09:42:30.870Z,8.49
2019-03-29T09:47:38.575Z,11.45
2019-03-29T09:52:36.140Z,11.69
2019-03-29T09:57:38.989Z,9.76
2019-03-29T10:02:41.871Z,11.87
2019-03-29T10:07:44.928Z,10.67
2019-03-29T10:12:47.798Z,10.68
2019-03-29T10:17:50.796Z,11.40
2019-03-29T10:22:53.749Z,11.92
2019-03-29T10:27:56.621Z,10.81
2019-03-29T10:32:59.324Z,9.41
2019-03-29T10:38:02.095Z,9.43
2019-03-29T10:43:05.051Z,10.39
2019-03-29T10:48:07.976Z,12.43
2019-03-29T10:53:10.850Z,6.61
2019-03-29T10:58:13.751Z,6.72
2019-03-29T11:03:16.657Z,6.72
2019-03-29T11:08:19.331Z,6.51
2019-03-29T11:13:21.910Z,6.98
2019-03-29T11:18:24.698Z,7.78
2019-03-29T11:23:27.462Z,6.11
2019-03-29T11:28:30.336Z,7.48
2019-03-29T11:33:33.128Z,9.48
2019-03-29T11:38:36.028Z,9.82
2019-03-29T11:43:38.954Z,9.33
2019-03-29T11:48:42.219Z,8.97
2019-03-29T11:53:45.202Z,13.71
2019-03-29T11:58:48.147Z,13.45
2019-03-29T12:03:51.151Z,12.64
2019-03-29T12:08:57.041Z,12.23
2019-03-29T12:13:56.499Z,16.76
2019-03-29T12:18:59.526Z,14.49
2019-03-29T12:24:02.543Z,17.61
2019-03-29T12:29:05.543Z,13.04
2019-03-29T12:34:08.349Z,15.52
2019-03-29T12:39:11.401Z,11.40
2019-03-29T12:44:14.357Z,10.36
2019-03-29T12:49:17.361Z,13.15
2019-03-29T12:54:20.677Z,8.24
2019-03-29T12:59:23.696Z,8.87
2019-03-29T13:04:26.668Z,10.18
2019-03-29T13:09:29.738Z,12.45
2019-03-29T13:14:32.623Z,11.49
2019-03-29T13:19:35.562Z,8.83
2019-03-29T13:24:38.466Z,8.28
2019-03-29T13:29:41.549Z,8.32
2019-03-29T13:34:44.462Z,7.68
2019-03-29T13:39:47.518Z,8.92
2019-03-29T13:44:50.721Z,10.80
2019-03-29T13:49:53.558Z,11.39
2019-03-29T13:54:56.258Z,11.28
2019-03-29T13:59:59.294Z,6.53
2019-03-29T14:05:02.111Z,8.80
2019-03-29T14:10:04.779Z,5.02
2019-03-29T14:15:07.909Z,6.44
2019-03-29T14:20:11.027Z,5.39
2019-03-29T14:25:14.222Z,1.84
2019-03-29T14:30:16.960Z,2.10
2019-03-29T14:35:19.902Z,5.12
2019-03-29T14:40:23.377Z,1.43
2019-03-29T14:45:26.047Z,6.65
2019-03-29T14:50:29.248Z,2.04
2019-03-29T14:55:32.195Z,3.03
2019-03-29T15:00:35.602Z,0.96
2019-03-29T15:05:38.435Z,0.81
2019-03-29T15:10:41.446Z,4.18
2019-03-29T15:15:44.983Z,2.42
2019-03-29T15:20:53.718Z,4.11
2019-03-29T15:25:50.813Z,4.93
2019-03-29T15:30:53.734Z,3.12
2019-03-29T15:35:56.647Z,3.03
2019-03-29T15:40:59.701Z,2.52
2019-03-29T15:46:02.537Z,2.93
2019-03-29T15:51:05.794Z,2.99
2019-03-29T15:56:08.655Z,5.36
2019-03-29T16:01:11.580Z,2.23
2019-03-29T16:06:14.701Z,2.87
2019-03-29T16:11:17.560Z,1.92
2019-03-29T16:16:20.690Z,4.64
2019-03-29T16:21:23.808Z,2.88
2019-03-29T16:26:26.577Z,1.86
2019-03-29T16:31:29.231Z,3.17
2019-03-29T16:36:32.202Z,1.42
2019-03-29T16:41:35.006Z,2.30
2019-03-29T16:46:37.749Z,3.84
2019-03-29T16:51:40.632Z,3.39
2019-03-29T16:56:43.630Z,1.38
2019-03-29T17:01:47.476Z,4.53
2019-03-29T17:06:50.458Z,2.10
2019-03-29T17:11:53.359Z,2.50
2019-03-29T17:16:56.526Z,4.21
2019-03-29T17:21:59.424Z,3.25
2019-03-29T17:27:03.896Z,3.45
2019-03-29T17:32:07.052Z,3.76
2019-03-29T17:37:10.210Z,2.88
2019-03-29T17:42:12.852Z,2.15
2019-03-29T17:47:15.772Z,3.30
2019-03-29T17:52:18.602Z,1.90
2019-03-29T17:57:22.098Z,2.84
2019-03-29T18:02:25.087Z,1.91
2019-03-29T18:07:28.112Z,2.29
2019-03-29T18:12:31.077Z,2.11
2019-03-29T18:17:33.920Z,4.72
2019-03-29T18:22:37.069Z,3.37
2019-03-29T18:27:41.658Z,4.40
2019-03-29T18:32:45.633Z,2.66
2019-03-29T18:37:48.696Z,4.57
2019-03-29T18:42:51.659Z,4.36
2019-03-29T18:47:54.882Z,4.16
2019-03-29T18:52:57.935Z,4.67
2019-03-29T18:58:01.024Z,3.98
2019-03-29T19:03:03.927Z,3.47
2019-03-29T19:08:07.041Z,4.12
2019-03-29T19:13:10.071Z,3.25
2019-03-29T19:18:13.208Z,3.30
2019-03-29T19:23:16.125Z,2.80
2019-03-29T19:28:19.027Z,3.01
2019-03-29T19:33:22.105Z,3.38
2019-03-29T19:38:25.286Z,2.75
2019-03-29T19:43:28.352Z,2.90
2019-03-29T19:48:31.419Z,2.13
2019-03-29T19:53:34.566Z,2.14
2019-03-29T19:58:37.533Z,2.19
2019-03-29T20:03:40.703Z,1.84
2019-03-29T20:08:43.692Z,2.37
2019-03-29T20:13:46.586Z,3.44
2019-03-29T20:18:49.273Z,4.30
2019-03-29T20:23:52.459Z,3.87
2019-03-29T20:28:56.321Z,4.05
2019-03-29T20:33:59.588Z,4.42
2019-03-29T20:39:02.798Z,8.95
2019-03-29T20:44:04.126Z,8.79
2019-03-29T20:49:07.126Z,7.14
2019-03-29T20:54:10.282Z,7.65
2019-03-29T20:59:13.274Z,7.78
2019-03-29T21:04:16.170Z,8.42
2019-03-29T21:09:19.083Z,10.79
2019-03-29T21:14:22.027Z,7.64
2019-03-29T21:19:25.009Z,7.98
2019-03-29T21:24:28.084Z,6.99
2019-03-29T21:29:31.016Z,6.24
2019-03-29T21:34:34.154Z,6.53
2019-03-29T21:39:37.217Z,9.32
2019-03-29T21:44:40.315Z,5.68
2019-03-29T21:49:43.714Z,10.66
2019-03-29T21:54:46.859Z,6.98
2019-03-29T21:59:49.832Z,7.88
2019-03-29T22:04:53.003Z,7.73
2019-03-29T22:09:55.843Z,6.09
2019-03-29T22:14:59.052Z,7.46
2019-03-29T22:20:02.225Z,6.40
2019-03-29T22:25:05.406Z,6.21
2019-03-29T22:30:08.294Z,8.24
2019-03-29T22:35:11.239Z,6.98
2019-03-29T22:40:14.235Z,8.83
2019-03-29T22:45:17.167Z,8.96
2019-03-29T22:50:20.044Z,7.65
2019-03-29T22:55:22.761Z,7.60
2019-03-29T23:00:25.412Z,7.04
2019-03-29T23:05:28.548Z,8.00
2019-03-29T23:10:31.497Z,9.58
2019-03-29T23:15:34.480Z,8.39
2019-03-29T23:20:37.569Z,9.12
2019-03-29T23:25:40.377Z,11.72
2019-03-29T23:30:43.180Z,9.11
2019-03-29T23:35:46.187Z,10.24
2019-03-29T23:40:49.186Z,11.72
2019-03-29T23:45:52.272Z,9.52
2019-03-29T23:50:55.343Z,11.96
2019-03-29T23:55:58.300Z,12.52
